sensor_id;sensor_type;location;lat;lon;timestamp;P1;durP1;ratioP1;P2;durP2;ratioP2
44476;SDS011;30180;44.788;10.366;2023-01-19T00:00:55;6.63;;;3.88;;
44476;SDS011;30180;44.788;10.366;2023-01-19T00:03:23;6.40;;;3.55;;
44476;SDS011;30180;44.788;10.366;2023-01-19T00:05:51;5.47;;;3.55;;
44476;SDS011;30180;44.788;10.366;2023-01-19T00:08:20;6.60;;;3.90;;
44476;SDS011;30180;44.788;10.366;2023-01-19T00:10:48;6.00;;;3.70;;
44476;SDS011;30180;44.788;10.366;2023-01-19T00:13:17;6.43;;;3.70;;
44476;SDS011;30180;44.788;10.366;2023-01-19T00:15:47;6.60;;;4.15;;
44476;SDS011;30180;44.788;10.366;2023-01-19T00:18:15;5.50;;;3.38;;
44476;SDS011;30180;44.788;10.366;2023-01-19T00:20:44;7.18;;;4.15;;
44476;SDS011;30180;44.788;10.366;2023-01-19T00:23:13;6.20;;;3.80;;
44476;SDS011;30180;44.788;10.366;2023-01-19T00:25:42;6.00;;;3.58;;
44476;SDS011;30180;44.788;10.366;2023-01-19T00:28:10;5.40;;;3.50;;
44476;SDS011;30180;44.788;10.366;2023-01-19T00:30:40;6.22;;;3.67;;
44476;SDS011;30180;44.788;10.366;2023-01-19T00:33:11;5.75;;;3.72;;
44476;SDS011;30180;44.788;10.366;2023-01-19T00:38:09;5.80;;;3.45;;
44476;SDS011;30180;44.788;10.366;2023-01-19T00:40:37;6.32;;;4.10;;
44476;SDS011;30180;44.788;10.366;2023-01-19T00:43:06;5.65;;;3.50;;
44476;SDS011;30180;44.788;10.366;2023-01-19T00:45:34;6.53;;;3.90;;
44476;SDS011;30180;44.788;10.366;2023-01-19T00:48:02;6.63;;;4.57;;
44476;SDS011;30180;44.788;10.366;2023-01-19T00:50:33;5.95;;;3.60;;
44476;SDS011;30180;44.788;10.366;2023-01-19T00:53:01;5.30;;;3.58;;
44476;SDS011;30180;44.788;10.366;2023-01-19T00:55:30;5.80;;;3.80;;
44476;SDS011;30180;44.788;10.366;2023-01-19T00:57:58;5.57;;;3.60;;
44476;SDS011;30180;44.788;10.366;2023-01-19T01:00:28;5.38;;;3.55;;
44476;SDS011;30180;44.788;10.366;2023-01-19T01:02:56;6.07;;;3.90;;
44476;SDS011;30180;44.788;10.366;2023-01-19T01:05:25;6.13;;;3.78;;
44476;SDS011;30180;44.788;10.366;2023-01-19T01:07:55;6.05;;;4.03;;
44476;SDS011;30180;44.788;10.366;2023-01-19T01:10:24;6.72;;;3.95;;
44476;SDS011;30180;44.788;10.366;2023-01-19T01:12:53;5.22;;;3.40;;
44476;SDS011;30180;44.788;10.366;2023-01-19T01:15:42;5.68;;;3.80;;
44476;SDS011;30180;44.788;10.366;2023-01-19T01:18:10;6.13;;;3.45;;
44476;SDS011;30180;44.788;10.366;2023-01-19T01:20:38;5.57;;;3.78;;
44476;SDS011;30180;44.788;10.366;2023-01-19T01:23:08;5.90;;;3.72;;
44476;SDS011;30180;44.788;10.366;2023-01-19T01:25:36;5.75;;;3.38;;
44476;SDS011;30180;44.788;10.366;2023-01-19T01:28:05;5.93;;;4.28;;
44476;SDS011;30180;44.788;10.366;2023-01-19T01:30:34;5.80;;;3.50;;
44476;SDS011;30180;44.788;10.366;2023-01-19T01:33:06;5.20;;;3.60;;
44476;SDS011;30180;44.788;10.366;2023-01-19T01:35:34;6.15;;;4.10;;
44476;SDS011;30180;44.788;10.366;2023-01-19T01:38:03;5.97;;;3.80;;
44476;SDS011;30180;44.788;10.366;2023-01-19T01:40:33;5.65;;;3.67;;
44476;SDS011;30180;44.788;10.366;2023-01-19T01:43:01;4.60;;;3.20;;
44476;SDS011;30180;44.788;10.366;2023-01-19T01:45:30;6.05;;;3.85;;
44476;SDS011;30180;44.788;10.366;2023-01-19T01:48:01;5.60;;;3.37;;
44476;SDS011;30180;44.788;10.366;2023-01-19T01:50:35;6.20;;;4.00;;
44476;SDS011;30180;44.788;10.366;2023-01-19T01:53:26;6.07;;;3.40;;
44476;SDS011;30180;44.788;10.366;2023-01-19T01:55:58;5.10;;;3.20;;
44476;SDS011;30180;44.788;10.366;2023-01-19T01:58:30;5.95;;;3.83;;
44476;SDS011;30180;44.788;10.366;2023-01-19T02:01:00;6.13;;;3.40;;
44476;SDS011;30180;44.788;10.366;2023-01-19T02:03:46;6.10;;;4.05;;
44476;SDS011;30180;44.788;10.366;2023-01-19T02:06:14;5.97;;;3.85;;
44476;SDS011;30180;44.788;10.366;2023-01-19T02:08:44;6.25;;;3.88;;
44476;SDS011;30180;44.788;10.366;2023-01-19T02:11:35;6.07;;;3.50;;
44476;SDS011;30180;44.788;10.366;2023-01-19T02:14:22;6.72;;;3.85;;
44476;SDS011;30180;44.788;10.366;2023-01-19T02:16:50;6.20;;;3.70;;
44476;SDS011;30180;44.788;10.366;2023-01-19T02:19:20;6.22;;;3.72;;
44476;SDS011;30180;44.788;10.366;2023-01-19T02:21:51;5.72;;;3.63;;
44476;SDS011;30180;44.788;10.366;2023-01-19T02:24:24;5.50;;;3.40;;
44476;SDS011;30180;44.788;10.366;2023-01-19T02:26:54;5.53;;;3.72;;
44476;SDS011;30180;44.788;10.366;2023-01-19T02:29:23;7.15;;;4.18;;
44476;SDS011;30180;44.788;10.366;2023-01-19T02:31:53;5.93;;;3.88;;
44476;SDS011;30180;44.788;10.366;2023-01-19T02:34:22;5.88;;;3.45;;
44476;SDS011;30180;44.788;10.366;2023-01-19T02:36:51;6.18;;;3.60;;
44476;SDS011;30180;44.788;10.366;2023-01-19T02:39:22;8.00;;;4.30;;
44476;SDS011;30180;44.788;10.366;2023-01-19T02:41:59;6.43;;;3.85;;
44476;SDS011;30180;44.788;10.366;2023-01-19T02:44:30;6.43;;;3.88;;
44476;SDS011;30180;44.788;10.366;2023-01-19T02:47:01;6.15;;;3.92;;
44476;SDS011;30180;44.788;10.366;2023-01-19T02:49:30;7.53;;;4.22;;
44476;SDS011;30180;44.788;10.366;2023-01-19T02:51:59;5.40;;;3.63;;
44476;SDS011;30180;44.788;10.366;2023-01-19T02:54:32;6.28;;;3.97;;
44476;SDS011;30180;44.788;10.366;2023-01-19T03:00:15;5.47;;;3.95;;
44476;SDS011;30180;44.788;10.366;2023-01-19T03:02:51;5.47;;;3.60;;
44476;SDS011;30180;44.788;10.366;2023-01-19T03:05:32;5.85;;;3.90;;
44476;SDS011;30180;44.788;10.366;2023-01-19T03:08:13;5.75;;;3.83;;
44476;SDS011;30180;44.788;10.366;2023-01-19T03:10:52;5.85;;;3.80;;
44476;SDS011;30180;44.788;10.366;2023-01-19T03:13:26;6.53;;;3.80;;
44476;SDS011;30180;44.788;10.366;2023-01-19T03:16:00;5.65;;;3.70;;
44476;SDS011;30180;44.788;10.366;2023-01-19T03:18:36;5.43;;;3.22;;
44476;SDS011;30180;44.788;10.366;2023-01-19T03:21:08;5.38;;;3.75;;
44476;SDS011;30180;44.788;10.366;2023-01-19T03:23:39;5.87;;;3.80;;
44476;SDS011;30180;44.788;10.366;2023-01-19T03:26:13;6.30;;;3.67;;
44476;SDS011;30180;44.788;10.366;2023-01-19T03:28:48;4.95;;;3.38;;
44476;SDS011;30180;44.788;10.366;2023-01-19T03:31:18;5.32;;;3.30;;
44476;SDS011;30180;44.788;10.366;2023-01-19T03:33:52;5.97;;;3.95;;
44476;SDS011;30180;44.788;10.366;2023-01-19T03:36:25;6.65;;;4.13;;
44476;SDS011;30180;44.788;10.366;2023-01-19T03:38:56;5.38;;;3.15;;
44476;SDS011;30180;44.788;10.366;2023-01-19T03:41:28;6.32;;;3.85;;
44476;SDS011;30180;44.788;10.366;2023-01-19T03:43:59;5.57;;;3.60;;
44476;SDS011;30180;44.788;10.366;2023-01-19T03:46:31;5.35;;;3.38;;
44476;SDS011;30180;44.788;10.366;2023-01-19T03:49:00;5.57;;;3.40;;
44476;SDS011;30180;44.788;10.366;2023-01-19T03:51:28;5.50;;;3.45;;
44476;SDS011;30180;44.788;10.366;2023-01-19T03:53:57;5.35;;;3.58;;
44476;SDS011;30180;44.788;10.366;2023-01-19T03:56:26;5.70;;;3.63;;
44476;SDS011;30180;44.788;10.366;2023-01-19T03:58:56;4.95;;;3.30;;
44476;SDS011;30180;44.788;10.366;2023-01-19T04:01:24;6.22;;;3.65;;
44476;SDS011;30180;44.788;10.366;2023-01-19T04:03:53;5.68;;;3.50;;
44476;SDS011;30180;44.788;10.366;2023-01-19T04:06:21;6.03;;;3.75;;
44476;SDS011;30180;44.788;10.366;2023-01-19T04:08:50;5.07;;;3.20;;
44476;SDS011;30180;44.788;10.366;2023-01-19T04:11:18;5.05;;;3.53;;
44476;SDS011;30180;44.788;10.366;2023-01-19T04:13:48;5.50;;;3.42;;
44476;SDS011;30180;44.788;10.366;2023-01-19T04:16:16;4.70;;;3.33;;
44476;SDS011;30180;44.788;10.366;2023-01-19T04:18:46;5.45;;;3.40;;
44476;SDS011;30180;44.788;10.366;2023-01-19T04:21:15;5.07;;;3.45;;
44476;SDS011;30180;44.788;10.366;2023-01-19T04:23:43;5.13;;;3.33;;
44476;SDS011;30180;44.788;10.366;2023-01-19T04:26:12;5.03;;;3.13;;
44476;SDS011;30180;44.788;10.366;2023-01-19T04:28:40;5.65;;;3.13;;
44476;SDS011;30180;44.788;10.366;2023-01-19T04:31:10;5.80;;;3.38;;
44476;SDS011;30180;44.788;10.366;2023-01-19T04:33:38;6.68;;;3.75;;
44476;SDS011;30180;44.788;10.366;2023-01-19T04:36:07;5.70;;;3.60;;
44476;SDS011;30180;44.788;10.366;2023-01-19T04:38:35;5.72;;;3.47;;
44476;SDS011;30180;44.788;10.366;2023-01-19T04:41:04;5.32;;;3.42;;
44476;SDS011;30180;44.788;10.366;2023-01-19T04:43:32;4.63;;;3.13;;
44476;SDS011;30180;44.788;10.366;2023-01-19T04:46:00;5.22;;;3.42;;
44476;SDS011;30180;44.788;10.366;2023-01-19T04:48:30;4.22;;;2.80;;
44476;SDS011;30180;44.788;10.366;2023-01-19T04:50:58;4.35;;;2.95;;
44476;SDS011;30180;44.788;10.366;2023-01-19T04:53:26;5.28;;;3.10;;
44476;SDS011;30180;44.788;10.366;2023-01-19T04:55:55;5.10;;;3.05;;
44476;SDS011;30180;44.788;10.366;2023-01-19T04:58:25;4.45;;;2.75;;
44476;SDS011;30180;44.788;10.366;2023-01-19T05:00:53;4.00;;;2.70;;
44476;SDS011;30180;44.788;10.366;2023-01-19T05:03:21;4.82;;;3.25;;
44476;SDS011;30180;44.788;10.366;2023-01-19T05:05:53;4.72;;;2.95;;
44476;SDS011;30180;44.788;10.366;2023-01-19T05:08:21;5.00;;;2.85;;
44476;SDS011;30180;44.788;10.366;2023-01-19T05:10:49;5.38;;;2.95;;
44476;SDS011;30180;44.788;10.366;2023-01-19T05:13:18;4.40;;;3.05;;
44476;SDS011;30180;44.788;10.366;2023-01-19T05:15:46;4.80;;;3.10;;
44476;SDS011;30180;44.788;10.366;2023-01-19T05:18:15;5.60;;;3.13;;
44476;SDS011;30180;44.788;10.366;2023-01-19T05:20:44;5.30;;;3.05;;
44476;SDS011;30180;44.788;10.366;2023-01-19T05:23:14;5.45;;;2.83;;
44476;SDS011;30180;44.788;10.366;2023-01-19T05:25:42;3.97;;;2.88;;
44476;SDS011;30180;44.788;10.366;2023-01-19T05:28:11;5.25;;;3.13;;
44476;SDS011;30180;44.788;10.366;2023-01-19T05:30:40;4.20;;;2.63;;
44476;SDS011;30180;44.788;10.366;2023-01-19T05:33:09;4.85;;;3.00;;
44476;SDS011;30180;44.788;10.366;2023-01-19T05:35:37;5.63;;;3.15;;
44476;SDS011;30180;44.788;10.366;2023-01-19T05:38:05;3.70;;;2.45;;
44476;SDS011;30180;44.788;10.366;2023-01-19T05:40:35;3.85;;;2.70;;
44476;SDS011;30180;44.788;10.366;2023-01-19T05:43:03;4.13;;;2.50;;
44476;SDS011;30180;44.788;10.366;2023-01-19T05:45:31;4.63;;;2.55;;
44476;SDS011;30180;44.788;10.366;2023-01-19T05:48:00;5.07;;;3.00;;
44476;SDS011;30180;44.788;10.366;2023-01-19T05:50:28;4.20;;;2.60;;
44476;SDS011;30180;44.788;10.366;2023-01-19T05:52:57;5.35;;;3.00;;
44476;SDS011;30180;44.788;10.366;2023-01-19T05:55:26;3.88;;;2.50;;
44476;SDS011;30180;44.788;10.366;2023-01-19T05:57:56;4.00;;;2.40;;
44476;SDS011;30180;44.788;10.366;2023-01-19T06:00:24;4.65;;;2.90;;
44476;SDS011;30180;44.788;10.366;2023-01-19T06:02:53;4.78;;;2.80;;
44476;SDS011;30180;44.788;10.366;2023-01-19T06:05:21;3.88;;;2.50;;
44476;SDS011;30180;44.788;10.366;2023-01-19T06:07:50;3.97;;;2.40;;
44476;SDS011;30180;44.788;10.366;2023-01-19T06:10:19;3.63;;;2.40;;
44476;SDS011;30180;44.788;10.366;2023-01-19T06:12:47;4.07;;;2.63;;
44476;SDS011;30180;44.788;10.366;2023-01-19T06:15:18;4.30;;;2.58;;
44476;SDS011;30180;44.788;10.366;2023-01-19T06:17:46;3.92;;;2.55;;
44476;SDS011;30180;44.788;10.366;2023-01-19T06:20:15;3.50;;;2.45;;
44476;SDS011;30180;44.788;10.366;2023-01-19T06:22:43;3.58;;;2.40;;
44476;SDS011;30180;44.788;10.366;2023-01-19T06:25:13;3.88;;;2.90;;
44476;SDS011;30180;44.788;10.366;2023-01-19T06:27:44;4.32;;;2.70;;
44476;SDS011;30180;44.788;10.366;2023-01-19T06:30:13;4.32;;;2.22;;
44476;SDS011;30180;44.788;10.366;2023-01-19T06:32:43;6.18;;;3.17;;
44476;SDS011;30180;44.788;10.366;2023-01-19T06:35:12;23.63;;;4.97;;
44476;SDS011;30180;44.788;10.366;2023-01-19T06:37:41;27.85;;;5.40;;
44476;SDS011;30180;44.788;10.366;2023-01-19T06:40:10;22.38;;;5.57;;
44476;SDS011;30180;44.788;10.366;2023-01-19T06:42:40;21.27;;;5.20;;
44476;SDS011;30180;44.788;10.366;2023-01-19T06:45:08;22.85;;;5.57;;
44476;SDS011;30180;44.788;10.366;2023-01-19T06:47:37;15.90;;;4.90;;
44476;SDS011;30180;44.788;10.366;2023-01-19T06:50:07;23.00;;;5.10;;
44476;SDS011;30180;44.788;10.366;2023-01-19T06:55:07;14.95;;;4.22;;
44476;SDS011;30180;44.788;10.366;2023-01-19T06:57:37;9.02;;;3.85;;
44476;SDS011;30180;44.788;10.366;2023-01-19T07:00:06;17.85;;;4.97;;
44476;SDS011;30180;44.788;10.366;2023-01-19T07:02:35;16.50;;;3.95;;
44476;SDS011;30180;44.788;10.366;2023-01-19T07:05:04;21.45;;;4.88;;
44476;SDS011;30180;44.788;10.366;2023-01-19T07:07:36;14.02;;;4.10;;
44476;SDS011;30180;44.788;10.366;2023-01-19T07:10:05;18.58;;;4.68;;
44476;SDS011;30180;44.788;10.366;2023-01-19T07:12:34;15.93;;;3.90;;
44476;SDS011;30180;44.788;10.366;2023-01-19T07:15:03;18.52;;;4.90;;
44476;SDS011;30180;44.788;10.366;2023-01-19T07:17:33;16.75;;;3.45;;
44476;SDS011;30180;44.788;10.366;2023-01-19T07:20:01;11.00;;;3.72;;
44476;SDS011;30180;44.788;10.366;2023-01-19T07:22:29;10.57;;;3.72;;
44476;SDS011;30180;44.788;10.366;2023-01-19T07:24:59;15.05;;;3.80;;
44476;SDS011;30180;44.788;10.366;2023-01-19T07:27:27;17.00;;;4.63;;
44476;SDS011;30180;44.788;10.366;2023-01-19T07:29:56;17.58;;;3.75;;
44476;SDS011;30180;44.788;10.366;2023-01-19T07:32:26;16.33;;;3.30;;
44476;SDS011;30180;44.788;10.366;2023-01-19T07:34:54;13.88;;;3.42;;
44476;SDS011;30180;44.788;10.366;2023-01-19T07:37:22;10.23;;;3.67;;
44476;SDS011;30180;44.788;10.366;2023-01-19T07:39:51;7.85;;;3.05;;
44476;SDS011;30180;44.788;10.366;2023-01-19T07:42:20;9.25;;;2.95;;
44476;SDS011;30180;44.788;10.366;2023-01-19T07:44:49;7.30;;;3.00;;
44476;SDS011;30180;44.788;10.366;2023-01-19T07:47:17;4.88;;;2.72;;
44476;SDS011;30180;44.788;10.366;2023-01-19T07:49:45;11.30;;;3.38;;
44476;SDS011;30180;44.788;10.366;2023-01-19T07:52:14;8.68;;;3.10;;
44476;SDS011;30180;44.788;10.366;2023-01-19T07:54:42;7.00;;;2.90;;
44476;SDS011;30180;44.788;10.366;2023-01-19T07:57:10;5.28;;;2.42;;
44476;SDS011;30180;44.788;10.366;2023-01-19T07:59:40;7.18;;;2.90;;
44476;SDS011;30180;44.788;10.366;2023-01-19T08:02:09;6.70;;;2.50;;
44476;SDS011;30180;44.788;10.366;2023-01-19T08:04:37;5.75;;;2.63;;
44476;SDS011;30180;44.788;10.366;2023-01-19T08:07:05;5.90;;;2.20;;
44476;SDS011;30180;44.788;10.366;2023-01-19T08:09:34;9.70;;;3.50;;
44476;SDS011;30180;44.788;10.366;2023-01-19T08:12:03;8.27;;;2.63;;
44476;SDS011;30180;44.788;10.366;2023-01-19T08:14:32;8.90;;;2.75;;
44476;SDS011;30180;44.788;10.366;2023-01-19T08:17:02;21.13;;;5.78;;
44476;SDS011;30180;44.788;10.366;2023-01-19T08:19:30;38.88;;;8.38;;
44476;SDS011;30180;44.788;10.366;2023-01-19T08:21:59;35.45;;;7.05;;
44476;SDS011;30180;44.788;10.366;2023-01-19T08:24:27;25.48;;;7.53;;
44476;SDS011;30180;44.788;10.366;2023-01-19T08:26:59;24.67;;;6.57;;
44476;SDS011;30180;44.788;10.366;2023-01-19T08:29:29;23.10;;;6.40;;
44476;SDS011;30180;44.788;10.366;2023-01-19T08:31:57;17.42;;;5.38;;
44476;SDS011;30180;44.788;10.366;2023-01-19T08:34:29;20.60;;;5.97;;
44476;SDS011;30180;44.788;10.366;2023-01-19T08:36:58;22.40;;;5.63;;
44476;SDS011;30180;44.788;10.366;2023-01-19T08:39:26;14.85;;;5.45;;
44476;SDS011;30180;44.788;10.366;2023-01-19T08:41:54;17.83;;;5.68;;
44476;SDS011;30180;44.788;10.366;2023-01-19T08:44:25;13.80;;;4.82;;
44476;SDS011;30180;44.788;10.366;2023-01-19T08:46:53;18.65;;;5.47;;
44476;SDS011;30180;44.788;10.366;2023-01-19T08:49:22;15.68;;;4.90;;
44476;SDS011;30180;44.788;10.366;2023-01-19T08:51:51;17.40;;;5.13;;
44476;SDS011;30180;44.788;10.366;2023-01-19T08:54:20;16.20;;;4.88;;
44476;SDS011;30180;44.788;10.366;2023-01-19T08:56:49;16.25;;;5.32;;
44476;SDS011;30180;44.788;10.366;2023-01-19T08:59:18;15.43;;;5.07;;
44476;SDS011;30180;44.788;10.366;2023-01-19T09:01:46;17.70;;;4.95;;
44476;SDS011;30180;44.788;10.366;2023-01-19T09:04:14;12.88;;;4.68;;
44476;SDS011;30180;44.788;10.366;2023-01-19T09:06:43;12.63;;;4.55;;
44476;SDS011;30180;44.788;10.366;2023-01-19T09:09:12;12.85;;;4.38;;
44476;SDS011;30180;44.788;10.366;2023-01-19T09:11:41;12.60;;;4.43;;
44476;SDS011;30180;44.788;10.366;2023-01-19T09:14:10;12.07;;;4.40;;
44476;SDS011;30180;44.788;10.366;2023-01-19T09:16:38;10.77;;;3.80;;
44476;SDS011;30180;44.788;10.366;2023-01-19T09:19:07;9.48;;;4.43;;
44476;SDS011;30180;44.788;10.366;2023-01-19T09:21:36;7.53;;;3.55;;
44476;SDS011;30180;44.788;10.366;2023-01-19T09:24:04;10.13;;;4.07;;
44476;SDS011;30180;44.788;10.366;2023-01-19T09:26:34;9.05;;;3.55;;
44476;SDS011;30180;44.788;10.366;2023-01-19T09:29:04;12.38;;;4.05;;
44476;SDS011;30180;44.788;10.366;2023-01-19T09:31:32;9.00;;;3.63;;
44476;SDS011;30180;44.788;10.366;2023-01-19T09:34:01;11.02;;;3.63;;
44476;SDS011;30180;44.788;10.366;2023-01-19T09:36:29;10.77;;;3.75;;
44476;SDS011;30180;44.788;10.366;2023-01-19T09:38:58;9.75;;;3.40;;
44476;SDS011;30180;44.788;10.366;2023-01-19T09:41:26;14.25;;;3.97;;
44476;SDS011;30180;44.788;10.366;2023-01-19T09:43:57;9.80;;;3.60;;
44476;SDS011;30180;44.788;10.366;2023-01-19T09:46:29;10.77;;;3.70;;
44476;SDS011;30180;44.788;10.366;2023-01-19T09:49:05;8.65;;;3.30;;
44476;SDS011;30180;44.788;10.366;2023-01-19T09:51:42;7.43;;;3.25;;
44476;SDS011;30180;44.788;10.366;2023-01-19T09:54:13;9.70;;;3.65;;
44476;SDS011;30180;44.788;10.366;2023-01-19T09:56:44;10.43;;;3.23;;
44476;SDS011;30180;44.788;10.366;2023-01-19T09:59:22;6.68;;;3.22;;
44476;SDS011;30180;44.788;10.366;2023-01-19T10:02:00;8.93;;;2.95;;
44476;SDS011;30180;44.788;10.366;2023-01-19T10:04:47;8.40;;;3.08;;
44476;SDS011;30180;44.788;10.366;2023-01-19T10:07:31;7.53;;;3.20;;
44476;SDS011;30180;44.788;10.366;2023-01-19T10:12:42;6.20;;;2.53;;
44476;SDS011;30180;44.788;10.366;2023-01-19T10:15:21;6.82;;;2.70;;
44476;SDS011;30180;44.788;10.366;2023-01-19T10:20:31;8.43;;;3.10;;
44476;SDS011;30180;44.788;10.366;2023-01-19T10:23:12;8.90;;;3.17;;
44476;SDS011;30180;44.788;10.366;2023-01-19T10:25:55;6.63;;;3.00;;
44476;SDS011;30180;44.788;10.366;2023-01-19T10:28:26;6.53;;;2.95;;
44476;SDS011;30180;44.788;10.366;2023-01-19T10:30:56;7.38;;;2.72;;
44476;SDS011;30180;44.788;10.366;2023-01-19T10:33:25;7.87;;;2.83;;
44476;SDS011;30180;44.788;10.366;2023-01-19T10:35:53;7.15;;;2.75;;
44476;SDS011;30180;44.788;10.366;2023-01-19T10:38:22;9.60;;;3.22;;
44476;SDS011;30180;44.788;10.366;2023-01-19T10:40:53;6.70;;;2.58;;
44476;SDS011;30180;44.788;10.366;2023-01-19T10:43:30;9.23;;;2.72;;
44476;SDS011;30180;44.788;10.366;2023-01-19T10:46:13;6.50;;;2.50;;
44476;SDS011;30180;44.788;10.366;2023-01-19T10:48:49;7.03;;;2.80;;
44476;SDS011;30180;44.788;10.366;2023-01-19T10:53:55;5.75;;;2.40;;
44476;SDS011;30180;44.788;10.366;2023-01-19T10:56:26;5.32;;;2.55;;
44476;SDS011;30180;44.788;10.366;2023-01-19T10:59:00;5.05;;;2.58;;
44476;SDS011;30180;44.788;10.366;2023-01-19T11:01:32;5.63;;;2.42;;
44476;SDS011;30180;44.788;10.366;2023-01-19T11:06:47;5.13;;;2.85;;
44476;SDS011;30180;44.788;10.366;2023-01-19T11:09:16;6.88;;;2.67;;
44476;SDS011;30180;44.788;10.366;2023-01-19T11:11:46;6.70;;;2.50;;
44476;SDS011;30180;44.788;10.366;2023-01-19T11:14:19;6.78;;;2.28;;
44476;SDS011;30180;44.788;10.366;2023-01-19T11:16:52;6.80;;;2.47;;
44476;SDS011;30180;44.788;10.366;2023-01-19T11:19:25;5.85;;;2.60;;
44476;SDS011;30180;44.788;10.366;2023-01-19T11:22:06;6.03;;;2.88;;
44476;SDS011;30180;44.788;10.366;2023-01-19T11:24:41;6.10;;;2.40;;
44476;SDS011;30180;44.788;10.366;2023-01-19T11:27:11;5.18;;;2.42;;
44476;SDS011;30180;44.788;10.366;2023-01-19T11:29:45;6.10;;;2.20;;
44476;SDS011;30180;44.788;10.366;2023-01-19T11:32:20;5.72;;;2.13;;
44476;SDS011;30180;44.788;10.366;2023-01-19T11:34:51;6.53;;;2.30;;
44476;SDS011;30180;44.788;10.366;2023-01-19T11:37:27;7.90;;;2.55;;
44476;SDS011;30180;44.788;10.366;2023-01-19T11:39:57;12.50;;;2.40;;
44476;SDS011;30180;44.788;10.366;2023-01-19T11:44:59;6.80;;;2.33;;
44476;SDS011;30180;44.788;10.366;2023-01-19T11:47:34;5.65;;;2.10;;
44476;SDS011;30180;44.788;10.366;2023-01-19T11:50:08;12.30;;;2.50;;
44476;SDS011;30180;44.788;10.366;2023-01-19T11:52:43;8.23;;;2.42;;
44476;SDS011;30180;44.788;10.366;2023-01-19T11:55:16;8.98;;;2.80;;
44476;SDS011;30180;44.788;10.366;2023-01-19T11:57:49;4.93;;;1.92;;
44476;SDS011;30180;44.788;10.366;2023-01-19T12:00:25;5.30;;;2.40;;
44476;SDS011;30180;44.788;10.366;2023-01-19T12:02:59;5.97;;;2.30;;
44476;SDS011;30180;44.788;10.366;2023-01-19T12:05:34;5.85;;;1.83;;
44476;SDS011;30180;44.788;10.366;2023-01-19T12:08:08;7.68;;;2.60;;
44476;SDS011;30180;44.788;10.366;2023-01-19T12:10:43;4.55;;;2.28;;
44476;SDS011;30180;44.788;10.366;2023-01-19T12:13:16;5.28;;;2.40;;
44476;SDS011;30180;44.788;10.366;2023-01-19T12:15:48;5.97;;;2.20;;
44476;SDS011;30180;44.788;10.366;2023-01-19T12:18:23;7.55;;;2.67;;
44476;SDS011;30180;44.788;10.366;2023-01-19T12:20:55;4.75;;;2.00;;
44476;SDS011;30180;44.788;10.366;2023-01-19T12:23:28;5.40;;;1.83;;
44476;SDS011;30180;44.788;10.366;2023-01-19T12:26:14;3.10;;;1.80;;
44476;SDS011;30180;44.788;10.366;2023-01-19T12:28:55;6.85;;;2.28;;
44476;SDS011;30180;44.788;10.366;2023-01-19T12:31:27;4.47;;;2.10;;
44476;SDS011;30180;44.788;10.366;2023-01-19T12:34:00;3.90;;;1.80;;
44476;SDS011;30180;44.788;10.366;2023-01-19T12:37:05;7.75;;;1.70;;
44476;SDS011;30180;44.788;10.366;2023-01-19T12:39:54;4.63;;;1.90;;
44476;SDS011;30180;44.788;10.366;2023-01-19T12:42:24;6.40;;;1.80;;
44476;SDS011;30180;44.788;10.366;2023-01-19T12:45:02;4.25;;;1.67;;
44476;SDS011;30180;44.788;10.366;2023-01-19T12:47:33;7.13;;;2.05;;
44476;SDS011;30180;44.788;10.366;2023-01-19T12:50:04;6.88;;;2.33;;
44476;SDS011;30180;44.788;10.366;2023-01-19T12:52:40;4.65;;;1.90;;
44476;SDS011;30180;44.788;10.366;2023-01-19T12:55:19;3.53;;;1.88;;
44476;SDS011;30180;44.788;10.366;2023-01-19T12:57:53;4.68;;;2.00;;
44476;SDS011;30180;44.788;10.366;2023-01-19T13:00:32;4.20;;;2.03;;
44476;SDS011;30180;44.788;10.366;2023-01-19T13:03:03;6.78;;;2.10;;
44476;SDS011;30180;44.788;10.366;2023-01-19T13:05:54;5.95;;;1.95;;
44476;SDS011;30180;44.788;10.366;2023-01-19T13:08:25;5.40;;;2.15;;
44476;SDS011;30180;44.788;10.366;2023-01-19T13:20:04;4.45;;;2.00;;
44476;SDS011;30180;44.788;10.366;2023-01-19T13:25:51;5.30;;;1.60;;
44476;SDS011;30180;44.788;10.366;2023-01-19T13:28:29;6.35;;;1.75;;
44476;SDS011;30180;44.788;10.366;2023-01-19T13:31:04;6.50;;;1.80;;
44476;SDS011;30180;44.788;10.366;2023-01-19T13:33:41;4.90;;;1.88;;
44476;SDS011;30180;44.788;10.366;2023-01-19T13:36:17;5.55;;;1.70;;
44476;SDS011;30180;44.788;10.366;2023-01-19T13:38:53;5.85;;;1.88;;
44476;SDS011;30180;44.788;10.366;2023-01-19T13:41:24;6.18;;;1.65;;
44476;SDS011;30180;44.788;10.366;2023-01-19T13:43:57;4.18;;;1.77;;
44476;SDS011;30180;44.788;10.366;2023-01-19T13:46:29;4.65;;;1.67;;
44476;SDS011;30180;44.788;10.366;2023-01-19T13:49:00;7.93;;;1.90;;
44476;SDS011;30180;44.788;10.366;2023-01-19T13:51:31;4.03;;;1.50;;
44476;SDS011;30180;44.788;10.366;2023-01-19T13:54:01;5.35;;;1.60;;
44476;SDS011;30180;44.788;10.366;2023-01-19T13:56:31;4.13;;;1.50;;
44476;SDS011;30180;44.788;10.366;2023-01-19T13:59:04;3.47;;;1.60;;
44476;SDS011;30180;44.788;10.366;2023-01-19T14:01:37;4.97;;;1.70;;
44476;SDS011;30180;44.788;10.366;2023-01-19T14:04:23;2.47;;;1.55;;
44476;SDS011;30180;44.788;10.366;2023-01-19T14:06:56;4.78;;;1.60;;
44476;SDS011;30180;44.788;10.366;2023-01-19T14:09:28;3.15;;;1.77;;
44476;SDS011;30180;44.788;10.366;2023-01-19T14:12:04;3.17;;;1.30;;
44476;SDS011;30180;44.788;10.366;2023-01-19T14:14:37;4.17;;;1.50;;
44476;SDS011;30180;44.788;10.366;2023-01-19T14:17:15;4.00;;;1.70;;
44476;SDS011;30180;44.788;10.366;2023-01-19T14:19:49;3.70;;;1.88;;
44476;SDS011;30180;44.788;10.366;2023-01-19T14:22:18;3.00;;;1.50;;
44476;SDS011;30180;44.788;10.366;2023-01-19T14:24:47;7.22;;;1.67;;
44476;SDS011;30180;44.788;10.366;2023-01-19T14:27:17;5.85;;;1.88;;
44476;SDS011;30180;44.788;10.366;2023-01-19T14:29:48;2.90;;;1.30;;
44476;SDS011;30180;44.788;10.366;2023-01-19T14:34:49;3.08;;;1.40;;
44476;SDS011;30180;44.788;10.366;2023-01-19T14:37:20;5.30;;;1.40;;
44476;SDS011;30180;44.788;10.366;2023-01-19T14:39:53;4.80;;;1.73;;
44476;SDS011;30180;44.788;10.366;2023-01-19T14:42:26;5.53;;;1.33;;
44476;SDS011;30180;44.788;10.366;2023-01-19T14:44:56;3.97;;;1.63;;
44476;SDS011;30180;44.788;10.366;2023-01-19T14:47:30;4.03;;;1.70;;
44476;SDS011;30180;44.788;10.366;2023-01-19T14:50:04;3.83;;;1.48;;
44476;SDS011;30180;44.788;10.366;2023-01-19T14:52:37;4.07;;;1.30;;
44476;SDS011;30180;44.788;10.366;2023-01-19T14:55:17;5.28;;;2.25;;
44476;SDS011;30180;44.788;10.366;2023-01-19T14:57:47;2.40;;;1.38;;
44476;SDS011;30180;44.788;10.366;2023-01-19T15:00:16;2.90;;;1.40;;
44476;SDS011;30180;44.788;10.366;2023-01-19T15:02:45;4.50;;;1.60;;
44476;SDS011;30180;44.788;10.366;2023-01-19T15:05:14;2.08;;;1.20;;
44476;SDS011;30180;44.788;10.366;2023-01-19T15:07:43;3.92;;;1.67;;
44476;SDS011;30180;44.788;10.366;2023-01-19T15:10:14;2.50;;;1.30;;
44476;SDS011;30180;44.788;10.366;2023-01-19T15:12:47;5.00;;;1.50;;
44476;SDS011;30180;44.788;10.366;2023-01-19T15:15:19;3.15;;;1.48;;
44476;SDS011;30180;44.788;10.366;2023-01-19T15:17:51;2.95;;;1.50;;
44476;SDS011;30180;44.788;10.366;2023-01-19T15:20:21;3.58;;;1.40;;
44476;SDS011;30180;44.788;10.366;2023-01-19T15:22:50;3.08;;;1.50;;
44476;SDS011;30180;44.788;10.366;2023-01-19T15:25:20;2.80;;;1.45;;
44476;SDS011;30180;44.788;10.366;2023-01-19T15:27:51;4.15;;;1.30;;
44476;SDS011;30180;44.788;10.366;2023-01-19T15:30:24;3.15;;;1.50;;
44476;SDS011;30180;44.788;10.366;2023-01-19T15:32:55;5.75;;;1.70;;